Startpagina
METAR-TAF:

METAR-TAF

Vliegvelden :

Luchthaven Stockholm-Arlanda

Stockholm-Arlanda, Zweden

breedte: 59-39N, lengte: 017-57E, hoogte: 38 m

Actueel weer

Dit bericht is 32 minuten geleden gemaakt, om 11:20 UTC
Wind 12 kt uit het westzuidwesten
Temperatuur 9°C
Vochtigheid 81%
Druk 1035 hPa
Zicht 10 km of meer
Gebroken wolken op 1600 ft

METAR: ESSA 161120Z 25012KT 9999 BKN016 09/06 Q1035 R01L/19//95 R08/19//95 R01R/19//95 NOSIG

Tijdstip: 12:52 (11:52 UTC)

Verwachting

Dit bericht is 22 minuten geleden gemaakt, om 11:30 UTC
Verwachting geldig van 16 om 12 UTC tot 17 om 12 UTC
Wind 10 kt uit het zuidwesten
Zicht 10 km of meer
Weinig wolken op 2000 ft

TAF: ESSA 161130Z 1612/1712 22010KT 9999 FEW020

Waarnemingen en weersverwachtingen van meer dan 4000 vliegvelden (METAR en TAF).

De beschikbare stations zijn de gele en rode punten op de kaart.

Ga met uw muis naar het station om de naam te zien.

Klik dan om waarnemingen en weersverwachtingen te zien.

kaart wijzigen: klik op de groene knoppen met een zwart kruis om in te zoomen, op de groene knop met een streepje om uit te zoomen of op de groene pijlen voor aangrenzende kaarten.


METAR-TAF: